Time;durP1;ratioP1;P1;durP2;ratioP2;P2;SDS_P1;SDS_P2;PMS_P1;PMS_P2;Temp;Humidity;BMP_temperature;BMP_pressure;BME280_temperature;BME280_humidity;BME280_pressure;Samples;Min_cycle;Max_cycle;Signal;HPM_P1;HPM_P2
2022/10/25 00:02:23;;;;;;;5.22;1.10;;;;;;;14.49;85.40;100073.69;10397041;28;20050;-70
2022/10/25 00:07:24;;;;;;;3.17;1.10;;;;;;;14.53;85.37;100079.56;10396706;28;20067;-72
2022/10/25 00:12:26;;;;;;;4.07;1.15;;;;;;;14.59;85.72;100079.81;10406373;28;20053;-70
2022/10/25 00:17:27;;;;;;;2.10;1.08;;;;;;;14.65;84.74;100073.00;10393876;28;20063;-70
2022/10/25 00:22:28;;;;;;;4.28;1.45;;;;;;;14.59;85.13;100073.59;10394986;28;20053;-72
2022/10/25 00:27:30;;;;;;;1.85;0.80;;;;;;;14.55;85.06;100085.63;10399476;28;20743;-71
2022/10/25 00:32:33;;;;;;;3.60;0.85;;;;;;;14.50;85.20;100094.97;10394951;28;20056;-70
2022/10/25 00:37:35;;;;;;;6.40;1.02;;;;;;;14.42;85.59;100092.19;10393363;28;20107;-70
2022/10/25 00:42:36;;;;;;;2.72;0.93;;;;;;;14.28;86.17;100088.22;10398085;28;20175;-71
2022/10/25 00:47:45;;;;;;;2.88;0.88;;;;;;;14.24;86.73;100100.22;10397715;28;20050;-73
2022/10/25 00:52:52;;;;;;;3.53;1.15;;;;;;;14.13;87.48;100098.59;10439257;28;20051;-72
2022/10/25 00:57:58;;;;;;;2.95;0.68;;;;;;;14.10;87.42;100103.41;10406064;28;20056;-69
2022/10/25 01:03:00;;;;;;;2.25;0.85;;;;;;;14.22;86.96;100099.53;10398376;28;20076;-71
2022/10/25 01:08:01;;;;;;;2.40;0.55;;;;;;;14.08;87.52;100087.50;10395051;28;20045;-73
2022/10/25 01:13:03;;;;;;;4.97;1.10;;;;;;;14.01;87.72;100089.09;10396974;28;20063;-70
2022/10/25 01:18:16;;;;;;;2.47;0.70;;;;;;;13.97;88.58;100107.25;10390580;28;20060;-71
2022/10/25 01:23:55;;;;;;;1.75;0.70;;;;;;;13.96;88.61;100110.09;10396135;28;20048;-71
2022/10/25 01:29:16;;;;;;;3.38;1.15;;;;;;;13.87;89.04;100101.16;10391420;28;20041;-73
2022/10/25 01:34:27;;;;;;;2.33;0.77;;;;;;;13.81;89.33;100104.41;10390618;28;20758;-69
2022/10/25 01:39:39;;;;;;;2.50;1.00;;;;;;;13.74;89.82;100101.47;10391326;28;20061;-69
2022/10/25 01:45:06;;;;;;;3.10;0.80;;;;;;;13.85;89.46;100112.97;10390850;28;20052;-69
2022/10/25 01:50:14;;;;;;;4.40;0.95;;;;;;;13.81;89.30;100108.91;10395719;28;20048;-72
2022/10/25 01:55:17;;;;;;;3.58;1.00;;;;;;;13.80;89.35;100110.75;10415579;28;20052;-71
2022/10/25 02:00:21;;;;;;;5.07;1.05;;;;;;;13.90;88.40;100116.91;10432917;28;20877;-69
2022/10/25 02:05:39;;;;;;;2.28;0.80;;;;;;;13.97;88.50;100111.78;10435693;28;20045;-70
2022/10/25 02:11:05;;;;;;;3.42;0.63;;;;;;;14.04;87.41;100110.19;10433612;28;20045;-71
2022/10/25 02:16:18;;;;;;;3.53;0.80;;;;;;;14.13;87.52;100101.28;10418112;28;20325;-70
2022/10/25 02:21:21;;;;;;;1.45;0.60;;;;;;;14.07;86.70;100109.06;10427633;28;20037;-72
2022/10/25 02:26:23;;;;;;;2.35;0.68;;;;;;;13.98;87.01;100113.47;10423627;28;20059;-71
2022/10/25 02:31:27;;;;;;;4.30;1.00;;;;;;;13.95;87.21;100113.78;10441290;28;20252;-71
2022/10/25 02:36:28;;;;;;;4.77;1.13;;;;;;;13.91;87.48;100118.56;10442973;28;20536;-70
2022/10/25 02:41:29;;;;;;;5.18;1.00;;;;;;;14.02;86.93;100124.72;10444438;28;20053;-70
2022/10/25 02:46:31;;;;;;;4.78;0.90;;;;;;;14.06;87.33;100126.94;10427652;28;20527;-70
2022/10/25 02:51:32;;;;;;;2.25;0.73;;;;;;;14.12;86.15;100126.34;10427448;28;20052;-72
2022/10/25 02:56:33;;;;;;;3.65;0.70;;;;;;;14.06;86.36;100134.97;10432361;28;20442;-69
2022/10/25 03:01:35;;;;;;;2.42;0.80;;;;;;;14.02;86.34;100124.72;10430960;28;20060;-69
2022/10/25 03:06:36;;;;;;;5.25;1.00;;;;;;;13.85;87.12;100121.84;10444897;28;20043;-73
2022/10/25 03:11:38;;;;;;;5.15;0.77;;;;;;;13.76;87.77;100123.56;10454249;28;20060;-71
2022/10/25 03:16:39;;;;;;;2.20;0.80;;;;;;;13.71;88.83;100117.81;10457587;28;20041;-70
2022/10/25 03:21:41;;;;;;;5.53;0.50;;;;;;;13.68;88.45;100120.78;10467606;28;20110;-73
2022/10/25 03:26:42;;;;;;;8.32;1.33;;;;;;;13.55;89.21;100139.00;10487605;28;20044;-74
2022/10/25 03:31:43;;;;;;;4.40;0.60;;;;;;;13.47;89.76;100131.72;10443849;28;20048;-69
2022/10/25 03:36:45;;;;;;;1.55;0.50;;;;;;;13.45;90.17;100136.38;10442756;28;20060;-69
2022/10/25 03:41:46;;;;;;;4.95;1.13;;;;;;;13.47;90.15;100133.53;10438372;28;20053;-69
2022/10/25 03:46:47;;;;;;;4.97;1.00;;;;;;;13.39;89.94;100135.09;10421673;28;20053;-71
2022/10/25 03:51:49;;;;;;;6.82;1.20;;;;;;;13.35;90.35;100138.22;10446149;28;20064;-70
2022/10/25 03:56:56;;;;;;;2.13;0.90;;;;;;;13.40;90.07;100136.78;10423716;28;20500;-71
2022/10/25 04:01:57;;;;;;;3.22;1.27;;;;;;;13.34;90.26;100137.34;10403087;28;20041;-68
2022/10/25 04:06:58;;;;;;;1.95;0.80;;;;;;;13.36;91.09;100146.09;10403125;28;20049;-72
2022/10/25 04:12:00;;;;;;;3.05;1.00;;;;;;;13.34;90.95;100142.69;10399211;28;20061;-69
2022/10/25 04:17:01;;;;;;;5.30;1.00;;;;;;;13.31;90.65;100153.66;10399664;28;20045;-69
2022/10/25 04:22:02;;;;;;;3.92;0.82;;;;;;;13.23;91.24;100146.34;10405166;28;20427;-71
2022/10/25 04:27:04;;;;;;;3.60;1.25;;;;;;;13.29;91.04;100149.47;10405094;28;20045;-70
2022/10/25 04:32:05;;;;;;;3.53;1.15;;;;;;;13.19;91.27;100149.47;10407373;28;20055;-72
2022/10/25 04:37:06;;;;;;;3.00;0.82;;;;;;;13.27;91.34;100169.16;10423990;28;20045;-75
2022/10/25 04:42:07;;;;;;;3.42;1.38;;;;;;;13.36;90.82;100162.13;10452137;28;20044;-72
2022/10/25 04:47:14;;;;;;;2.45;1.10;;;;;;;13.31;91.10;100152.81;10448657;28;20029;-70
2022/10/25 04:52:15;;;;;;;2.58;1.13;;;;;;;13.30;90.64;100157.34;10454335;28;20056;-74
2022/10/25 04:57:16;;;;;;;2.55;1.17;;;;;;;13.28;91.07;100153.94;10442569;28;20044;-69
2022/10/25 05:02:18;;;;;;;2.92;0.80;;;;;;;13.28;91.49;100153.94;10409699;28;20056;-70
2022/10/25 05:07:20;;;;;;;4.45;1.38;;;;;;;13.21;91.32;100155.50;10401309;28;20498;-69
2022/10/25 05:12:22;;;;;;;5.82;1.40;;;;;;;13.16;91.83;100157.75;10395218;28;20048;-69
2022/10/25 05:17:23;;;;;;;5.22;1.45;;;;;;;13.12;92.06;100161.69;10384063;28;20052;-70
2022/10/25 05:22:25;;;;;;;4.43;1.10;;;;;;;13.19;91.92;100168.16;10373888;28;20812;-70
2022/10/25 05:27:26;;;;;;;2.85;0.98;;;;;;;13.20;92.00;100161.84;10381736;28;20060;-71
2022/10/25 05:32:28;;;;;;;4.97;1.58;;;;;;;13.15;92.15;100174.78;10376340;28;20054;-69
2022/10/25 05:37:30;;;;;;;6.10;1.30;;;;;;;13.09;92.84;100173.53;10381529;28;20053;-69
2022/10/25 05:42:31;;;;;;;4.32;1.10;;;;;;;13.05;92.98;100180.97;10383183;28;20045;-70
2022/10/25 05:47:32;;;;;;;3.78;1.50;;;;;;;12.94;93.64;100178.47;10397597;28;20052;-69
2022/10/25 05:52:33;;;;;;;4.15;1.80;;;;;;;12.86;94.32;100180.97;10405156;28;21463;-71
2022/10/25 05:57:35;;;;;;;4.20;1.80;;;;;;;12.85;94.97;100182.81;10386593;28;20052;-72
2022/10/25 06:02:37;;;;;;;5.15;1.30;;;;;;;12.87;95.11;100196.03;10414512;28;20124;-71
2022/10/25 06:07:38;;;;;;;8.57;1.40;;;;;;;12.87;95.80;100206.72;10396197;28;20049;-72
2022/10/25 06:12:39;;;;;;;6.82;1.58;;;;;;;13.17;97.51;100220.94;10381571;28;20048;-72
2022/10/25 06:17:40;;;;;;;3.40;2.28;;;;;;;13.21;94.64;100227.66;10375940;28;20867;-72
2022/10/25 06:22:42;;;;;;;7.50;1.85;;;;;;;13.11;93.80;100232.19;10373118;28;20057;-71
2022/10/25 06:27:44;;;;;;;3.30;1.55;;;;;;;13.18;93.55;100238.63;10373561;28;20176;-70
2022/10/25 06:32:45;;;;;;;5.88;1.55;;;;;;;13.17;93.93;100234.28;10374838;28;20404;-71
2022/10/25 06:37:47;;;;;;;5.93;1.88;;;;;;;13.08;93.76;100239.47;10381321;28;20056;-71
2022/10/25 06:42:53;;;;;;;6.15;1.67;;;;;;;13.01;94.75;100232.16;10398940;28;20053;-72
2022/10/25 06:47:54;;;;;;;6.07;1.88;;;;;;;13.05;94.47;100245.09;10437397;28;20041;-73
2022/10/25 06:52:56;;;;;;;5.70;1.85;;;;;;;13.05;94.68;100257.63;10415624;28;20059;-71
2022/10/25 06:57:58;;;;;;;6.82;2.33;;;;;;;13.12;94.74;100265.94;10419576;28;20075;-72
2022/10/25 07:02:59;;;;;;;5.93;1.48;;;;;;;13.13;94.74;100267.63;10419375;28;20049;-70
2022/10/25 07:08:00;;;;;;;6.07;2.45;;;;;;;13.35;93.45;100271.88;10421937;28;20048;-73
2022/10/25 07:13:02;;;;;;;5.07;1.73;;;;;;;13.40;93.07;100258.94;10421213;28;20096;-73
2022/10/25 07:18:03;;;;;;;5.32;2.10;;;;;;;13.59;92.42;100263.41;10425900;28;20479;-71
2022/10/25 07:23:04;;;;;;;9.13;2.17;;;;;;;13.68;91.95;100281.28;10405265;28;20045;-70
2022/10/25 07:28:10;;;;;;;;;;;;;;;13.96;91.11;100287.56;10425638;28;20698;-72
2022/10/25 07:33:14;;;;;;;4.45;1.92;;;;;;;14.15;88.93;100291.16;10406435;28;19931;-72
2022/10/25 07:38:15;;;;;;;4.07;1.95;;;;;;;14.24;88.53;100302.84;10407720;28;20045;-74
2022/10/25 07:43:17;;;;;;;8.57;2.28;;;;;;;14.44;87.11;100307.16;10425460;28;20071;-71
2022/10/25 07:48:18;;;;;;;3.65;2.10;;;;;;;14.53;86.67;100317.94;10420566;28;20212;-74
2022/10/25 07:53:20;;;;;;;5.07;2.03;;;;;;;14.80;84.90;100325.16;10422410;28;20052;-73
2022/10/25 07:58:21;;;;;;;7.93;2.17;;;;;;;15.03;83.41;100325.63;10419579;28;20052;-83
2022/10/25 08:03:22;;;;;;;5.80;2.22;;;;;;;15.21;82.30;100339.06;10423383;28;20266;-70
2022/10/25 08:08:24;;;;;;;4.22;1.70;;;;;;;15.29;81.12;100332.94;10400676;28;20551;-72
2022/10/25 08:13:26;;;;;;;5.22;2.15;;;;;;;15.19;81.81;100327.63;10422264;28;20055;-71
2022/10/25 08:18:27;;;;;;;4.30;2.45;;;;;;;15.25;81.47;100336.91;10422089;28;20124;-72
2022/10/25 08:23:30;;;;;;;6.88;2.80;;;;;;;15.19;81.70;100339.22;10417400;28;20107;-73
2022/10/25 08:28:31;;;;;;;5.88;2.47;;;;;;;15.19;81.90;100347.25;10418683;28;20064;-73
2022/10/25 08:33:33;;;;;;;6.07;2.28;;;;;;;15.10;82.95;100340.13;10421642;28;20060;-71
2022/10/25 08:38:34;;;;;;;7.25;2.58;;;;;;;15.06;82.91;100346.75;10425696;28;20064;-71
2022/10/25 08:44:13;;;;;;;5.35;2.53;;;;;;;15.20;82.68;100348.91;10406494;28;20733;-71
2022/10/25 08:49:47;;;;;;;3.67;2.20;;;;;;;15.44;81.79;100352.00;10419474;28;20290;-71
2022/10/25 08:54:49;;;;;;;8.33;2.10;;;;;;;15.24;82.24;100357.50;10399542;28;20056;-70
2022/10/25 08:59:55;;;;;;;4.57;2.38;;;;;;;15.37;82.37;100346.41;10417196;28;20037;-71
2022/10/25 09:04:57;;;;;;;8.30;2.33;;;;;;;15.45;81.67;100349.19;10416081;28;20060;-72
2022/10/25 09:10:29;;;;;;;9.23;3.42;;;;;;;15.67;81.25;100360.44;10417712;28;20056;-70
2022/10/25 09:15:51;;;;;;;4.13;2.35;;;;;;;15.89;79.95;100364.53;10386866;28;20507;-70
2022/10/25 09:20:53;;;;;;;5.55;2.47;;;;;;;15.94;79.99;100372.09;10390157;28;20059;-70
2022/10/25 09:26:02;;;;;;;4.55;2.58;;;;;;;15.90;80.00;100364.38;10410784;28;20053;-71
2022/10/25 09:31:09;;;;;;;8.38;2.58;;;;;;;15.92;79.74;100366.06;10412274;28;20048;-69
2022/10/25 09:36:12;;;;;;;8.30;3.40;;;;;;;16.02;79.14;100364.97;10417662;28;20041;-71
2022/10/25 09:41:39;;;;;;;7.38;3.40;;;;;;;16.21;79.27;100373.81;10418196;28;20579;-71
2022/10/25 09:46:46;;;;;;;5.25;3.00;;;;;;;16.43;77.85;100367.06;10396955;28;20048;-73
2022/10/25 09:52:11;;;;;;;6.35;2.80;;;;;;;16.25;78.81;100370.66;10412285;28;20049;-71
2022/10/25 09:57:12;;;;;;;4.65;2.15;;;;;;;16.11;79.26;100363.19;10414029;28;20063;-72
2022/10/25 10:02:19;;;;;;;5.72;2.47;;;;;;;16.16;79.55;100355.47;10395292;28;21052;-70
2022/10/25 10:07:32;;;;;;;7.22;2.67;;;;;;;16.19;79.66;100373.97;10390111;28;20055;-71
2022/10/25 10:12:42;;;;;;;8.87;3.80;;;;;;;16.02;79.77;100372.19;10373659;28;20057;-72
2022/10/25 10:17:44;;;;;;;4.80;2.90;;;;;;;15.95;80.68;100379.16;10376188;28;20283;-71
2022/10/25 10:22:52;;;;;;;7.05;3.25;;;;;;;16.15;79.86;100366.38;10373198;28;20084;-72
2022/10/25 10:27:56;;;;;;;8.55;3.17;;;;;;;16.53;78.28;100365.13;10368594;28;20605;-73
2022/10/25 10:33:00;;;;;;;3.53;2.45;;;;;;;16.87;76.30;100372.34;10379618;28;20052;-72
2022/10/25 10:38:22;;;;;;;3.53;1.90;;;;;;;17.04;76.42;100377.78;10376637;28;20056;-71
2022/10/25 10:43:31;;;;;;;6.50;2.40;;;;;;;16.75;75.24;100379.84;10374202;28;20045;-72
2022/10/25 10:48:37;;;;;;;5.57;2.40;;;;;;;16.63;76.52;100374.91;10378061;28;20052;-72
2022/10/25 10:53:43;;;;;;;2.85;1.70;;;;;;;16.55;77.16;100370.34;10381420;28;20142;-72
2022/10/25 10:58:49;;;;;;;4.55;1.85;;;;;;;16.48;77.43;100371.97;10380115;28;20063;-72
2022/10/25 11:03:58;;;;;;;5.82;1.95;;;;;;;16.51;77.54;100363.59;10381778;28;20049;-72
2022/10/25 11:09:20;;;;;;;4.60;1.75;;;;;;;16.56;77.46;100370.19;10383131;28;20556;-71
2022/10/25 11:14:21;;;;;;;7.95;2.35;;;;;;;16.54;77.54;100374.88;10383945;28;20052;-72
2022/10/25 11:19:44;;;;;;;4.80;1.50;;;;;;;16.65;77.12;100370.19;10393155;28;20053;-73
2022/10/25 11:25:16;;;;;;;4.18;1.70;;;;;;;16.95;74.63;100358.97;10416930;28;20880;-71
2022/10/25 11:30:19;;;;;;;8.50;3.78;;;;;;;17.04;74.23;100372.41;10386676;28;20049;-72
2022/10/25 11:35:58;;;;;;;5.55;2.20;;;;;;;16.99;73.85;100366.69;10392847;28;20455;-72
2022/10/25 11:41:27;;;;;;;4.63;1.40;;;;;;;16.99;72.05;100366.69;10391494;28;20251;-72
2022/10/25 11:46:50;;;;;;;2.75;1.10;;;;;;;17.90;68.89;100363.19;10384578;28;20052;-71
2022/10/25 11:52:14;;;;;;;8.97;3.53;;;;;;;18.55;66.45;100366.78;10417571;28;20060;-71
2022/10/25 11:57:46;;;;;;;3.83;1.60;;;;;;;19.41;63.62;100366.91;10404311;28;20040;-69
2022/10/25 12:03:12;;;;;;;2.35;0.80;;;;;;;23.24;52.22;100346.66;10402993;28;20060;-71
2022/10/25 12:08:29;;;;;;;1.17;0.52;;;;;;;23.48;48.65;100353.41;10422774;28;20561;-71
2022/10/25 12:13:39;;;;;;;2.17;0.98;;;;;;;20.73;55.17;100353.13;10422201;28;20053;-75
2022/10/25 12:18:47;;;;;;;2.95;0.73;;;;;;;20.45;56.38;100359.13;10424905;28;20048;-73
2022/10/25 12:23:52;;;;;;;3.22;1.00;;;;;;;26.50;44.01;100356.59;10376667;28;20049;-71
2022/10/25 12:28:58;;;;;;;5.50;3.38;;;;;;;27.40;38.88;100346.94;10378757;28;20404;-73
2022/10/25 12:34:13;;;;;;;2.78;1.33;;;;;;;29.31;35.05;100345.81;10381081;28;20061;-71
2022/10/25 12:39:23;;;;;;;2.13;0.85;;;;;;;24.27;43.90;100340.06;10372014;28;20730;-71
2022/10/25 12:44:47;;;;;;;2.70;0.52;;;;;;;21.70;50.19;100340.25;10380210;28;20056;-72
2022/10/25 12:49:48;;;;;;;4.70;1.38;;;;;;;20.22;55.08;100334.03;10375636;28;20082;-71
2022/10/25 12:54:57;;;;;;;2.08;0.77;;;;;;;19.77;56.90;100334.81;10371802;28;20140;-72
2022/10/25 13:00:12;;;;;;;1.10;0.65;;;;;;;22.51;51.93;100325.44;10377211;28;20124;-70
2022/10/25 13:05:32;;;;;;;2.58;0.60;;;;;;;31.36;32.29;100314.97;10373807;28;20127;-71
2022/10/25 13:10:41;;;;;;;4.32;0.52;;;;;;;34.83;25.82;100302.63;10372004;28;20051;-73
2022/10/25 13:15:49;;;;;;;2.58;0.50;;;;;;;34.81;25.18;100311.22;10377109;28;20046;-73
2022/10/25 13:20:51;;;;;;;2.90;0.50;;;;;;;34.34;26.06;100306.97;10376256;28;20049;-73
2022/10/25 13:25:52;;;;;;;134.18;93.47;;;;;;;34.74;24.35;100307.94;10373766;28;20056;-73
2022/10/25 13:31:32;;;;;;;7.23;2.33;;;;;;;32.23;26.67;100304.69;10334812;28;1040273;-73
2022/10/25 13:36:53;;;;;;;7.60;6.63;;;;;;;33.69;24.75;100304.00;10385845;28;20045;-75
2022/10/25 13:42:31;;;;;;;3.05;1.02;;;;;;;28.64;33.36;100311.59;10376642;28;20186;-72
2022/10/25 13:47:35;;;;;;;1.55;0.68;;;;;;;25.11;39.13;100310.28;10372150;28;20581;-71
2022/10/25 13:52:41;;;;;;;2.00;0.60;;;;;;;28.14;34.55;100313.75;10372989;28;20056;-71
2022/10/25 13:57:44;;;;;;;2.13;0.60;;;;;;;31.92;28.54;100292.63;10372455;28;20064;-73
2022/10/25 14:03:20;;;;;;;3.47;0.70;;;;;;;33.43;26.04;100299.28;10372566;28;20064;-73
2022/10/25 14:08:37;;;;;;;1.73;0.60;;;;;;;34.59;25.07;100305.22;10372391;28;20057;-73
2022/10/25 14:14:14;;;;;;;1.88;0.65;;;;;;;35.16;24.58;100295.53;10376343;28;20060;-73
2022/10/25 14:19:21;;;;;;;2.83;0.85;;;;;;;28.84;33.41;100295.56;10368855;28;20066;-70
2022/10/25 14:24:22;;;;;;;3.60;1.25;;;;;;;32.31;27.91;100281.31;10364729;28;20840;-75
2022/10/25 14:29:26;;;;;;;4.15;0.73;;;;;;;33.92;25.66;100278.59;10371052;28;20061;-79
2022/10/25 14:34:28;;;;;;;2.10;0.95;;;;;;;28.29;32.61;100291.38;10379995;28;20045;-76
2022/10/25 14:39:30;;;;;;;1.75;0.65;;;;;;;24.50;41.04;100285.16;10381874;28;20060;-75
2022/10/25 14:44:44;;;;;;;3.15;0.90;;;;;;;23.92;42.75;100289.50;10383135;28;20234;-75
2022/10/25 14:49:45;;;;;;;3.95;1.00;;;;;;;22.42;45.60;100294.94;10376255;28;20045;-76
2022/10/25 14:54:54;;;;;;;3.42;1.35;;;;;;;21.64;48.50;100292.28;10381131;28;20911;-75
2022/10/25 15:00:03;;;;;;;3.13;1.10;;;;;;;21.14;49.54;100289.50;10380112;28;20045;-75
2022/10/25 15:05:05;;;;;;;4.22;1.17;;;;;;;20.61;51.00;100292.38;10375622;28;20057;-78
2022/10/25 15:10:35;;;;;;;2.00;1.20;;;;;;;19.99;53.17;100294.41;10425933;28;20065;-77
2022/10/25 15:15:43;;;;;;;2.53;1.60;;;;;;;19.93;53.75;100284.34;10417710;28;20230;-78
2022/10/25 15:20:48;;;;;;;2.45;1.02;;;;;;;19.87;54.33;100274.28;10432149;28;20044;-75
2022/10/25 15:25:49;;;;;;;2.90;1.33;;;;;;;19.59;54.44;100282.94;10406501;28;20049;-74
2022/10/25 15:31:02;;;;;;;3.20;0.88;;;;;;;19.08;56.28;100276.25;10378127;28;20060;-73
2022/10/25 15:36:04;;;;;;;4.38;1.30;;;;;;;19.12;56.75;100294.75;10382663;28;20060;-73
2022/10/25 15:41:07;;;;;;;4.25;0.85;;;;;;;18.81;57.34;100279.38;10386897;28;20588;-73
2022/10/25 15:46:25;;;;;;;2.43;1.00;;;;;;;18.52;58.41;100280.88;10387042;28;20773;-73
2022/10/25 15:51:27;;;;;;;2.13;1.02;;;;;;;18.40;58.83;100276.88;10386643;28;20045;-73
2022/10/25 15:56:31;;;;;;;2.83;1.00;;;;;;;18.22;59.30;100279.81;10387478;28;20044;-71
2022/10/25 16:01:32;;;;;;;4.72;1.10;;;;;;;18.20;59.71;100274.59;10383497;28;20057;-72
2022/10/25 16:06:34;;;;;;;3.25;1.30;;;;;;;18.05;59.95;100268.25;10384538;28;20053;-71
2022/10/25 16:11:37;;;;;;;1.92;1.10;;;;;;;18.01;60.81;100271.28;10416517;28;20056;-72
2022/10/25 16:16:38;;;;;;;4.35;1.45;;;;;;;17.90;60.90;100270.78;10428583;28;20048;-71
2022/10/25 16:21:42;;;;;;;2.33;1.48;;;;;;;17.76;61.48;100281.22;10419325;28;20164;-70
2022/10/25 16:26:47;;;;;;;4.10;1.60;;;;;;;17.61;62.22;100275.66;10425670;28;20052;-72
2022/10/25 16:31:50;;;;;;;4.05;1.60;;;;;;;17.39;62.73;100269.09;10417847;28;20610;-71
2022/10/25 16:36:52;;;;;;;6.13;5.60;;;;;;;17.43;63.46;100274.97;10423476;28;20056;-73
2022/10/25 16:41:57;;;;;;;23.33;21.05;;;;;;;17.31;64.31;100283.41;10407680;28;20068;-72
2022/10/25 16:46:58;;;;;;;7.00;5.93;;;;;;;17.33;65.16;100282.41;10424624;28;20474;-74
2022/10/25 16:52:00;;;;;;;10.55;9.45;;;;;;;17.30;65.34;100278.19;10434999;28;20148;-76
2022/10/25 16:57:01;;;;;;;17.25;15.60;;;;;;;17.23;65.83;100274.47;10428968;28;20056;-72
2022/10/25 17:02:03;;;;;;;5.43;3.20;;;;;;;17.22;66.02;100286.22;10406834;28;20064;-72
2022/10/25 17:07:04;;;;;;;6.57;5.70;;;;;;;17.15;66.10;100283.38;10410260;28;20129;-70
2022/10/25 17:12:07;;;;;;;4.72;3.40;;;;;;;17.05;67.00;100264.69;10411546;28;20048;-73
2022/10/25 17:17:08;;;;;;;4.78;4.18;;;;;;;16.99;67.19;100276.09;10420381;28;20514;-73
2022/10/25 17:22:09;;;;;;;3.40;2.40;;;;;;;17.05;67.26;100267.38;10431414;28;20083;-75
2022/10/25 17:27:11;;;;;;;3.30;2.70;;;;;;;17.12;67.46;100267.56;10458931;28;20056;-71
2022/10/25 17:32:12;;;;;;;2.88;2.30;;;;;;;17.06;67.52;100262.84;10432930;28;20060;-72
2022/10/25 17:37:13;;;;;;;7.15;2.88;;;;;;;16.90;68.12;100259.13;10402880;28;20057;-72
2022/10/25 17:42:15;;;;;;;3.65;2.70;;;;;;;16.87;69.32;100264.81;10403609;28;20036;-72
2022/10/25 17:47:16;;;;;;;5.55;2.70;;;;;;;16.85;69.14;100266.81;10416065;28;20497;-72
2022/10/25 17:52:17;;;;;;;4.65;2.80;;;;;;;16.72;69.93;100250.31;10400228;28;20079;-73
2022/10/25 17:57:19;;;;;;;5.40;3.47;;;;;;;16.58;70.71;100247.25;10413486;28;20458;-71
2022/10/25 18:02:20;;;;;;;8.13;4.47;;;;;;;16.52;70.62;100245.22;10417174;28;20059;-73
2022/10/25 18:07:21;;;;;;;7.78;4.25;;;;;;;16.26;71.44;100253.34;10419362;28;20214;-73
2022/10/25 18:12:22;;;;;;;7.88;4.60;;;;;;;16.10;72.39;100261.31;10418234;28;20463;-71
2022/10/25 18:17:24;;;;;;;6.32;4.38;;;;;;;15.93;73.11;100253.16;10399901;28;20060;-71
2022/10/25 18:22:25;;;;;;;6.32;4.80;;;;;;;15.95;73.84;100244.94;10397979;28;20545;-72
2022/10/25 18:27:29;;;;;;;8.45;4.25;;;;;;;16.00;73.78;100243.47;10419581;28;20049;-72
2022/10/25 18:32:30;;;;;;;7.25;4.80;;;;;;;16.00;74.00;100247.97;10413143;28;20044;-75
2022/10/25 18:37:36;;;;;;;10.50;6.15;;;;;;;15.91;74.22;100241.72;10401917;28;20056;-71
2022/10/25 18:42:37;;;;;;;7.38;6.15;;;;;;;15.77;74.64;100247.66;10423629;28;20943;-72
2022/10/25 18:47:40;;;;;;;11.25;7.10;;;;;;;15.69;75.14;100248.44;10416316;28;20059;-73
2022/10/25 18:52:41;;;;;;;8.88;6.43;;;;;;;15.72;75.48;100243.59;10399544;28;20234;-71
2022/10/25 18:57:42;;;;;;;5.90;4.70;;;;;;;15.66;75.22;100241.53;10413649;28;20052;-72
2022/10/25 19:02:51;;;;;;;6.47;5.38;;;;;;;15.51;76.44;100243.94;10399612;28;20055;-74
2022/10/25 19:07:53;;;;;;;7.03;5.30;;;;;;;15.53;76.49;100249.16;10400480;28;20083;-71
2022/10/25 19:12:54;;;;;;;7.78;4.70;;;;;;;15.53;76.56;100255.34;10427054;28;20057;-72
2022/10/25 19:17:55;;;;;;;8.98;4.70;;;;;;;15.48;76.46;100252.31;10409512;28;20049;-72
2022/10/25 19:22:57;;;;;;;5.97;4.20;;;;;;;15.33;77.40;100243.13;10428193;28;20045;-73
2022/10/25 19:27:59;;;;;;;7.13;4.82;;;;;;;15.29;77.42;100252.47;10435812;28;20064;-75
2022/10/25 19:33:00;;;;;;;6.57;4.45;;;;;;;15.22;78.25;100248.72;10432017;28;20058;-72
2022/10/25 19:38:01;;;;;;;8.77;4.55;;;;;;;15.11;78.30;100244.44;10435848;28;20045;-74
2022/10/25 19:43:03;;;;;;;7.40;4.70;;;;;;;15.05;79.46;100232.47;10434527;28;20049;-75
2022/10/25 19:48:04;;;;;;;6.40;4.28;;;;;;;15.18;78.86;100234.78;10435886;28;20056;-72
2022/10/25 19:53:05;;;;;;;7.03;4.22;;;;;;;15.17;79.07;100241.97;10425300;28;20053;-74
2022/10/25 19:58:07;;;;;;;7.38;4.25;;;;;;;15.23;79.12;100243.19;10442336;28;20422;-74
2022/10/25 20:03:08;;;;;;;6.25;4.00;;;;;;;15.15;78.71;100249.34;10451646;28;20053;-71
2022/10/25 20:08:09;;;;;;;7.45;4.72;;;;;;;15.15;78.96;100241.28;10442312;28;20059;-70
2022/10/25 20:13:11;;;;;;;9.50;4.63;;;;;;;15.16;78.87;100237.63;10425369;28;20063;-71
2022/10/25 20:18:12;;;;;;;5.60;4.30;;;;;;;15.07;79.76;100241.19;10440861;28;20049;-71
2022/10/25 20:23:14;;;;;;;6.40;4.68;;;;;;;14.95;79.88;100239.75;10420477;28;23296;-71
2022/10/25 20:28:16;;;;;;;9.10;4.53;;;;;;;14.97;80.01;100232.41;10435030;28;20059;-71
2022/10/25 20:33:19;;;;;;;7.78;4.60;;;;;;;14.98;79.90;100231.41;10434655;28;20053;-72
2022/10/25 20:38:20;;;;;;;6.35;4.53;;;;;;;15.02;79.95;100230.94;10400343;28;20051;-71
2022/10/25 20:43:21;;;;;;;7.07;4.22;;;;;;;14.96;80.85;100230.72;10398154;28;20248;-71
2022/10/25 20:48:23;;;;;;;7.90;4.70;;;;;;;14.97;80.58;100243.13;10400225;28;20062;-71
2022/10/25 20:53:24;;;;;;;8.88;5.03;;;;;;;14.77;80.87;100232.56;10394845;28;20057;-70
2022/10/25 20:58:25;;;;;;;8.48;4.18;;;;;;;14.67;81.67;100232.59;10404225;28;20436;-71
2022/10/25 21:03:28;;;;;;;8.88;4.43;;;;;;;14.57;82.53;100234.47;10398371;28;20044;-72
2022/10/25 21:08:31;;;;;;;6.50;4.40;;;;;;;14.56;82.93;100234.63;10422083;28;20055;-73
2022/10/25 21:13:34;;;;;;;8.30;4.95;;;;;;;14.46;82.33;100235.50;10408760;28;20049;-72
2022/10/25 21:18:36;;;;;;;10.50;5.40;;;;;;;14.38;82.51;100222.03;10394073;28;20048;-72
2022/10/25 21:23:37;;;;;;;5.85;4.25;;;;;;;14.30;82.96;100224.59;10395495;28;20056;-71
2022/10/25 21:28:40;;;;;;;8.75;5.97;;;;;;;14.28;83.01;100221.25;10399149;28;20111;-71
2022/10/25 21:33:46;;;;;;;8.75;5.03;;;;;;;14.20;83.43;100218.44;10391658;28;20061;-71
2022/10/25 21:38:51;;;;;;;7.13;4.57;;;;;;;14.16;83.87;100212.56;10435760;28;20068;-72
2022/10/25 21:43:53;;;;;;;6.57;5.07;;;;;;;14.19;84.10;100216.78;10393989;28;20057;-73
2022/10/25 21:48:55;;;;;;;5.00;4.13;;;;;;;14.13;84.42;100202.97;10400810;28;20099;-74
2022/10/25 21:54:00;;;;;;;4.65;3.67;;;;;;;14.21;84.00;100212.13;10427839;28;20734;-74
2022/10/25 21:59:01;;;;;;;5.65;3.75;;;;;;;14.12;84.30;100203.97;10395253;28;20488;-71
2022/10/25 22:04:02;;;;;;;8.63;5.20;;;;;;;14.11;84.28;100202.28;10395094;28;20049;-73
2022/10/25 22:09:04;;;;;;;9.90;4.60;;;;;;;14.09;84.12;100204.25;10392966;28;20053;-73
2022/10/25 22:14:11;;;;;;;9.20;4.28;;;;;;;14.01;84.63;100214.88;10393527;28;20052;-72
2022/10/25 22:19:16;;;;;;;7.15;3.78;;;;;;;14.02;84.59;100200.50;10390756;28;20052;-73
2022/10/25 22:24:17;;;;;;;7.07;4.22;;;;;;;13.99;84.45;100190.09;10391986;28;20069;-73
2022/10/25 22:29:19;;;;;;;8.48;4.25;;;;;;;14.01;84.56;100198.81;10397591;28;20064;-71
2022/10/25 22:34:20;;;;;;;5.70;4.18;;;;;;;13.99;85.04;100192.78;10394994;28;20041;-71
2022/10/25 22:39:21;;;;;;;7.88;4.88;;;;;;;13.96;85.21;100190.38;10395169;28;20072;-72
2022/10/25 22:44:23;;;;;;;7.15;4.38;;;;;;;13.95;85.48;100194.88;10397692;28;20164;-71
2022/10/25 22:49:24;;;;;;;5.57;4.38;;;;;;;13.96;85.53;100185.88;10399058;28;20045;-71
2022/10/25 22:54:25;;;;;;;6.70;4.28;;;;;;;13.96;85.28;100191.22;10402148;28;20053;-71
2022/10/25 22:59:26;;;;;;;6.82;4.05;;;;;;;13.96;85.36;100190.38;10402843;28;20052;-71
2022/10/25 23:04:28;;;;;;;7.97;4.10;;;;;;;13.96;85.51;100190.38;10404625;28;20057;-73
2022/10/25 23:09:29;;;;;;;6.35;3.78;;;;;;;13.94;85.29;100189.69;10425907;28;20048;-72
2022/10/25 23:14:30;;;;;;;7.28;4.25;;;;;;;13.92;85.42;100189.00;10441865;28;20053;-71
2022/10/25 23:19:32;;;;;;;5.55;3.42;;;;;;;13.96;85.30;100185.00;10425051;28;20124;-73
2022/10/25 23:24:33;;;;;;;6.93;4.13;;;;;;;13.96;85.21;100185.00;10439133;28;20052;-72